createdAt,value
2023-08-08T02:31:37.346Z,78.27
2023-08-08T02:32:38.324Z,78.27
2023-08-08T02:33:38.347Z,78.27
2023-08-08T02:34:38.459Z,78.27
2023-08-08T02:35:38.627Z,78.16
2023-08-08T02:36:38.610Z,78.06
2023-08-08T02:37:38.674Z,77.96
2023-08-08T02:38:38.719Z,77.82
2023-08-08T02:39:38.854Z,77.72
2023-08-08T02:40:38.923Z,77.72
2023-08-08T02:41:39.036Z,77.72
2023-08-08T02:42:39.093Z,77.62
2023-08-08T02:43:39.186Z,77.51
2023-08-08T02:44:39.293Z,77.51
2023-08-08T02:45:39.375Z,77.51
2023-08-08T02:46:39.416Z,77.41
2023-08-08T02:47:39.521Z,77.31
2023-08-08T02:48:39.569Z,77.21
2023-08-08T02:49:39.713Z,77.07
2023-08-08T02:50:39.757Z,77.07
2023-08-08T02:51:39.817Z,77.07
2023-08-08T02:52:39.928Z,76.97
2023-08-08T02:53:40.003Z,76.97
2023-08-08T02:54:40.074Z,76.87
2023-08-08T02:55:40.158Z,76.87
2023-08-08T02:56:40.237Z,76.97
2023-08-08T02:57:40.334Z,76.87
2023-08-08T02:58:40.402Z,76.76
2023-08-08T02:59:40.527Z,76.66
2023-08-08T03:00:40.553Z,76.56
2023-08-08T03:01:40.915Z,76.56
2023-08-08T03:02:40.838Z,76.46
2023-08-08T03:03:40.910Z,76.25
2023-08-08T03:04:40.960Z,76.15
2023-08-08T03:05:41.042Z,76.15
2023-08-08T03:06:41.118Z,76.15
2023-08-08T03:07:41.205Z,76.15
2023-08-08T03:08:41.292Z,76.15
2023-08-08T03:09:41.378Z,76.15
2023-08-08T03:10:41.445Z,76.15
2023-08-08T03:11:41.509Z,76.15
2023-08-08T03:12:41.577Z,76.05
2023-08-08T03:13:41.662Z,76.05
2023-08-08T03:14:41.762Z,75.95
2023-08-08T03:15:41.811Z,75.95
2023-08-08T03:16:41.915Z,75.95
2023-08-08T03:17:42.052Z,75.95
2023-08-08T03:18:42.053Z,75.95
2023-08-08T03:19:42.177Z,75.95
2023-08-08T03:20:42.202Z,75.95
2023-08-08T03:21:42.330Z,75.95
2023-08-08T03:22:42.344Z,75.95
2023-08-08T03:23:42.456Z,75.95
2023-08-08T03:24:42.559Z,75.95
2023-08-08T03:25:42.633Z,75.95
2023-08-08T03:26:42.716Z,75.95
2023-08-08T03:27:42.781Z,75.95
2023-08-08T03:28:42.861Z,75.95
2023-08-08T03:29:42.959Z,75.95
2023-08-08T03:30:43.023Z,75.85
2023-08-08T03:31:43.120Z,75.85
2023-08-08T03:32:43.244Z,75.85
2023-08-08T03:33:43.324Z,75.74
2023-08-08T03:34:43.372Z,75.74
2023-08-08T03:35:43.451Z,75.74
2023-08-08T03:36:43.664Z,75.74
2023-08-08T03:37:43.585Z,75.74
2023-08-08T03:38:43.673Z,75.71
2023-08-08T03:39:43.766Z,75.71
2023-08-08T03:40:43.874Z,75.60
2023-08-08T03:41:43.926Z,75.60
2023-08-08T03:42:44.023Z,75.51
2023-08-08T03:43:44.114Z,75.40
2023-08-08T03:44:44.208Z,75.30
2023-08-08T03:45:44.244Z,75.20
2023-08-08T03:46:44.305Z,75.20
2023-08-08T03:47:44.460Z,75.20
2023-08-08T03:48:44.497Z,75.30
2023-08-08T03:49:44.592Z,75.40
2023-08-08T03:50:44.651Z,75.40
2023-08-08T03:51:44.734Z,75.40
2023-08-08T03:52:44.793Z,75.51
2023-08-08T03:53:44.873Z,75.51
2023-08-08T03:54:44.963Z,75.60
2023-08-08T03:55:45.019Z,75.60
2023-08-08T03:56:45.126Z,75.51
2023-08-08T03:57:45.195Z,75.40
2023-08-08T03:58:45.260Z,75.30
2023-08-08T03:59:45.388Z,75.20
2023-08-08T04:00:45.450Z,75.20
2023-08-08T04:01:45.497Z,75.20
2023-08-08T04:02:45.651Z,75.20
2023-08-08T04:03:45.680Z,75.10
2023-08-08T04:04:45.784Z,75.10
2023-08-08T04:05:45.835Z,74.99
2023-08-08T04:06:45.895Z,74.90
2023-08-08T04:07:46.000Z,74.79
2023-08-08T04:08:46.068Z,74.90
2023-08-08T04:09:46.174Z,74.93
2023-08-08T04:10:46.219Z,74.93
2023-08-08T04:11:46.316Z,74.93
2023-08-08T04:12:46.376Z,74.83
2023-08-08T04:13:46.440Z,74.93
2023-08-08T04:14:46.565Z,75.03
2023-08-08T04:15:46.644Z,75.13
2023-08-08T04:16:46.727Z,75.13
2023-08-08T04:17:46.848Z,75.13
2023-08-08T04:18:46.886Z,75.13
2023-08-08T04:19:47.032Z,75.13
2023-08-08T04:20:47.070Z,75.10
2023-08-08T04:21:47.123Z,75.13
2023-08-08T04:22:47.201Z,75.13
2023-08-08T04:23:47.283Z,75.13
2023-08-08T04:24:47.417Z,75.23
2023-08-08T04:25:47.448Z,75.20
2023-08-08T04:26:47.554Z,75.20
2023-08-08T04:27:47.634Z,75.20
2023-08-08T04:28:47.711Z,75.10
2023-08-08T04:29:47.827Z,74.99
2023-08-08T04:30:48.000Z,74.99
2023-08-08T04:31:47.975Z,75.10
2023-08-08T04:32:48.106Z,75.10
2023-08-08T04:33:48.148Z,75.20
2023-08-08T04:34:48.234Z,75.10
2023-08-08T04:35:48.298Z,75.10
2023-08-08T04:36:48.381Z,75.10
2023-08-08T04:37:48.482Z,74.99
2023-08-08T04:38:48.584Z,74.90
2023-08-08T04:39:48.771Z,74.90
2023-08-08T04:40:48.723Z,74.90
2023-08-08T04:41:48.837Z,74.90
2023-08-08T04:42:48.891Z,74.90
2023-08-08T04:43:49.014Z,74.79
2023-08-08T04:44:49.105Z,74.79
2023-08-08T04:45:49.181Z,74.69
2023-08-08T04:46:49.319Z,74.69
2023-08-08T04:47:49.378Z,74.69
2023-08-08T04:48:49.405Z,74.58
2023-08-08T04:49:49.542Z,74.69
2023-08-08T04:50:49.580Z,74.58
2023-08-08T04:51:49.653Z,74.58
2023-08-08T04:52:49.720Z,74.58
2023-08-08T04:53:49.828Z,74.69
2023-08-08T04:54:49.962Z,74.69
2023-08-08T04:55:49.990Z,74.58
2023-08-08T04:56:50.052Z,74.58
2023-08-08T04:57:50.174Z,74.58
2023-08-08T04:58:50.187Z,74.58
2023-08-08T04:59:50.327Z,74.58
2023-08-08T05:00:50.409Z,74.58
2023-08-08T05:01:50.474Z,74.49
2023-08-08T05:02:50.584Z,74.49
2023-08-08T05:03:51.195Z,74.38
2023-08-08T05:04:50.735Z,74.38
2023-08-08T05:05:50.863Z,74.38
2023-08-08T05:06:50.849Z,74.49
2023-08-08T05:07:50.973Z,74.58
2023-08-08T05:08:51.049Z,74.58
2023-08-08T05:09:51.199Z,74.58
2023-08-08T05:10:51.202Z,74.58
2023-08-08T05:11:51.304Z,74.69
2023-08-08T05:12:51.401Z,74.69
2023-08-08T05:13:51.497Z,74.58
2023-08-08T05:14:51.596Z,74.49
2023-08-08T05:15:51.666Z,74.49
2023-08-08T05:16:51.792Z,74.49
2023-08-08T05:17:51.810Z,74.49
2023-08-08T05:18:51.883Z,74.38
2023-08-08T05:19:51.979Z,74.38
2023-08-08T05:20:52.073Z,74.49
2023-08-08T05:21:52.725Z,74.38
2023-08-08T05:22:52.203Z,74.28
2023-08-08T05:23:52.297Z,74.18
2023-08-08T05:24:52.386Z,74.18
2023-08-08T05:25:52.471Z,74.28
2023-08-08T05:26:52.535Z,74.18
2023-08-08T05:27:52.668Z,74.18
2023-08-08T05:28:52.701Z,74.18
2023-08-08T05:29:52.794Z,74.18
2023-08-08T05:30:52.879Z,74.18
2023-08-08T05:31:52.944Z,74.28
2023-08-08T05:32:53.052Z,74.28
2023-08-08T05:33:53.073Z,74.18
2023-08-08T05:34:53.187Z,74.28
2023-08-08T05:35:53.261Z,74.28
2023-08-08T05:37:10.088Z,74.08
2023-08-08T05:37:53.383Z,74.01
2023-08-08T05:38:53.471Z,74.01
2023-08-08T05:39:53.609Z,74.11
2023-08-08T05:40:53.615Z,74.11
2023-08-08T05:41:53.685Z,74.21
2023-08-08T05:42:53.825Z,74.21
2023-08-08T05:43:53.822Z,74.21
2023-08-08T05:44:53.922Z,74.21
2023-08-08T05:45:54.031Z,74.21
2023-08-08T05:46:54.004Z,74.32
2023-08-08T05:47:54.171Z,74.42
2023-08-08T05:48:54.175Z,74.32
2023-08-08T05:49:54.272Z,74.42
2023-08-08T05:50:54.319Z,74.42
2023-08-08T05:51:54.401Z,74.42
2023-08-08T05:52:54.477Z,74.32
2023-08-08T05:53:54.545Z,74.32
2023-08-08T05:54:54.682Z,74.42
2023-08-08T05:55:54.745Z,74.42
2023-08-08T05:56:54.818Z,74.52
2023-08-08T05:57:54.884Z,74.52
2023-08-08T05:58:54.971Z,74.52
2023-08-08T05:59:55.095Z,74.52
2023-08-08T06:00:55.126Z,74.42
2023-08-08T06:01:55.241Z,74.28
2023-08-08T06:02:55.289Z,74.42
2023-08-08T06:03:55.437Z,74.52
2023-08-08T06:04:55.511Z,74.52
2023-08-08T06:05:55.575Z,74.62
2023-08-08T06:06:55.656Z,74.62
2023-08-08T06:07:55.723Z,74.73
2023-08-08T06:08:55.831Z,74.69
2023-08-08T06:09:55.954Z,74.69
2023-08-08T06:10:55.984Z,74.79
2023-08-08T06:11:56.177Z,74.79
2023-08-08T06:12:56.187Z,74.79
2023-08-08T06:13:56.267Z,74.69
2023-08-08T06:14:56.344Z,74.58
2023-08-08T06:15:56.538Z,74.58
2023-08-08T06:16:56.501Z,74.49
2023-08-08T06:17:56.602Z,74.38
2023-08-08T06:18:56.651Z,74.38
2023-08-08T06:19:57.031Z,74.28
2023-08-08T06:20:56.849Z,74.28
2023-08-08T06:21:56.924Z,74.28
2023-08-08T06:22:57.015Z,74.28
2023-08-08T06:23:57.117Z,74.18
2023-08-08T06:24:57.232Z,74.08
2023-08-08T06:25:57.256Z,74.08
2023-08-08T06:26:57.350Z,73.97
2023-08-08T06:27:57.513Z,73.97
2023-08-08T06:28:57.557Z,74.08
2023-08-08T06:29:57.600Z,74.08
2023-08-08T06:30:57.644Z,74.18
2023-08-08T06:31:58.102Z,74.18
2023-08-08T06:32:57.847Z,74.28
2023-08-08T06:33:57.901Z,74.28
2023-08-08T06:34:57.965Z,74.28
2023-08-08T06:35:57.993Z,74.38
2023-08-08T06:36:58.081Z,74.38
2023-08-08T06:37:58.155Z,74.28
2023-08-08T06:38:58.219Z,74.28
2023-08-08T06:39:58.369Z,74.38
2023-08-08T06:40:58.384Z,74.38
2023-08-08T06:41:58.809Z,74.28
2023-08-08T06:42:58.576Z,74.38
2023-08-08T06:43:58.633Z,74.38
2023-08-08T06:44:58.758Z,74.28
2023-08-08T06:45:58.915Z,74.38
2023-08-08T06:46:58.909Z,74.28
2023-08-08T06:47:59.040Z,74.28
2023-08-08T06:48:59.065Z,74.18
2023-08-08T06:49:59.187Z,74.04
2023-08-08T06:50:59.231Z,73.97
2023-08-08T06:51:59.598Z,73.94
2023-08-08T06:52:59.419Z,73.94
2023-08-08T06:53:59.478Z,73.94
2023-08-08T06:54:59.614Z,73.94
2023-08-08T06:55:59.820Z,73.94
2023-08-08T06:57:01.464Z,73.94
2023-08-08T06:57:59.841Z,73.94
2023-08-08T06:58:59.968Z,73.94
2023-08-08T07:00:00.073Z,73.94
2023-08-08T07:01:00.210Z,73.94
2023-08-08T07:02:00.219Z,73.94
2023-08-08T07:03:02.342Z,73.94
2023-08-08T07:04:00.439Z,73.94
2023-08-08T07:05:00.497Z,73.94
2023-08-08T07:06:00.587Z,73.94
2023-08-08T07:07:00.656Z,74.04
2023-08-08T07:08:00.828Z,74.04
2023-08-08T07:09:00.817Z,74.04
2023-08-08T07:10:00.903Z,74.04
2023-08-08T07:11:01.006Z,74.04
2023-08-08T07:12:01.330Z,74.15
2023-08-08T07:13:01.263Z,74.15
2023-08-08T07:14:01.241Z,74.15
2023-08-08T07:15:01.397Z,74.15
2023-08-08T07:16:01.439Z,74.15
2023-08-08T07:17:01.461Z,74.11
2023-08-08T07:18:01.626Z,74.01
2023-08-08T07:19:01.702Z,74.01
2023-08-08T07:20:01.791Z,74.01
2023-08-08T07:21:01.872Z,73.91
2023-08-08T07:22:02.260Z,73.91
2023-08-08T07:23:02.022Z,73.91
2023-08-08T07:24:02.110Z,73.91
2023-08-08T07:25:02.258Z,74.01
2023-08-08T07:26:02.323Z,74.01
2023-08-08T07:27:02.386Z,73.91
2023-08-08T07:28:02.438Z,73.91
2023-08-08T07:32:00.858Z,73.80
2023-08-08T07:33:01.758Z,73.91
2023-08-08T07:34:01.723Z,74.01
2023-08-08T07:35:01.879Z,74.11
2023-08-08T07:36:01.894Z,74.11
2023-08-08T07:37:01.928Z,74.01
2023-08-08T07:38:02.022Z,73.97
2023-08-08T07:39:02.090Z,73.87
2023-08-08T07:40:02.225Z,73.77
2023-08-08T07:41:02.304Z,73.77
2023-08-08T07:42:02.550Z,73.67
2023-08-08T07:43:02.458Z,73.57
2023-08-08T07:44:02.509Z,73.57
2023-08-08T07:45:02.654Z,73.47
2023-08-08T07:46:02.713Z,73.33
2023-08-08T07:47:02.807Z,73.33
2023-08-08T07:48:02.905Z,73.33
2023-08-08T07:49:03.030Z,73.23
2023-08-08T07:50:03.133Z,73.23
2023-08-08T07:51:03.217Z,73.33
2023-08-08T07:52:03.353Z,73.23
2023-08-08T07:53:03.309Z,73.23
2023-08-08T07:54:03.454Z,73.23
2023-08-08T07:55:03.547Z,73.23
2023-08-08T07:56:03.625Z,73.23
2023-08-08T07:57:03.692Z,73.23
2023-08-08T07:58:03.856Z,73.23
2023-08-08T07:59:03.894Z,73.23
2023-08-08T08:00:04.039Z,73.23
2023-08-08T08:01:04.623Z,73.23
2023-08-08T08:02:04.366Z,73.19
2023-08-08T08:03:04.228Z,73.19
2023-08-08T08:04:04.370Z,73.30
2023-08-08T08:05:04.351Z,73.30
2023-08-08T08:06:04.553Z,73.30
2023-08-08T08:08:48.149Z,73.09
2023-08-08T08:46:18.209Z,72.99
2023-08-08T08:49:07.357Z,72.45
2023-08-08T08:50:08.422Z,72.04
2023-08-08T08:51:17.516Z,71.73
2023-08-08T08:52:08.572Z,71.20
2023-08-08T08:53:08.671Z,70.79
2023-08-08T08:54:08.601Z,70.76
2023-08-08T08:55:08.672Z,70.76
2023-08-08T08:56:08.767Z,70.15
2023-08-08T09:04:40.008Z,67.85
2023-08-08T09:05:38.122Z,67.75
2023-08-08T09:06:38.207Z,67.65
2023-08-08T09:12:42.952Z,65.99
2023-08-08T09:25:16.951Z,63.23
2023-08-08T09:47:29.823Z,61.68
2023-08-08T09:48:30.698Z,61.35
2023-08-08T09:49:31.607Z,61.44
2023-08-08T09:50:30.987Z,61.24
2023-08-08T09:51:30.922Z,60.53
2023-08-08T09:54:55.433Z,59.29
2023-08-08T09:55:56.420Z,58.25
2023-08-08T09:56:56.534Z,58.25
2023-08-08T09:57:56.596Z,58.45
2023-08-08T09:58:56.591Z,58.65
2023-08-08T09:59:56.672Z,58.45
2023-08-08T10:00:56.765Z,58.23
2023-08-08T10:01:56.868Z,57.62
2023-08-08T10:02:56.999Z,57.52
2023-08-08T10:03:57.050Z,57.42
2023-08-08T10:04:57.357Z,57.42
2023-08-08T10:05:57.183Z,56.81
2023-08-08T10:06:57.212Z,56.27
2023-08-08T10:07:57.374Z,56.27
2023-08-08T10:08:57.402Z,56.38
2023-08-08T10:09:57.505Z,55.98
2023-08-08T10:10:57.643Z,55.98
2023-08-08T10:11:57.873Z,55.77
2023-08-08T10:12:57.770Z,55.65
2023-08-08T10:13:57.890Z,55.85
2023-08-08T10:14:57.958Z,56.15
2023-08-08T10:15:58.063Z,56.45
2023-08-08T10:16:58.084Z,56.45
2023-08-08T10:17:58.227Z,56.65
2023-08-08T10:18:58.247Z,57.06
2023-08-08T10:19:58.338Z,57.26
2023-08-08T10:20:58.446Z,57.34
2023-08-08T10:21:58.825Z,57.54
2023-08-08T10:23:00.472Z,57.43
2023-08-08T10:23:58.668Z,57.23
2023-08-08T10:24:58.725Z,57.34
2023-08-08T10:25:58.877Z,57.64
2023-08-08T10:26:59.037Z,57.43
2023-08-08T10:27:59.799Z,57.61
2023-08-08T10:29:00.291Z,57.71
2023-08-08T10:29:59.171Z,57.81
2023-08-08T10:30:59.346Z,57.81
2023-08-08T10:31:59.612Z,57.41
2023-08-08T10:32:59.557Z,57.21
2023-08-08T10:33:59.568Z,57.31
2023-08-08T10:34:59.762Z,57.61
2023-08-08T10:35:59.702Z,57.81
2023-08-08T10:36:59.770Z,57.61
2023-08-08T10:37:59.835Z,57.01
2023-08-08T10:38:59.909Z,57.10
2023-08-08T10:40:02.874Z,57.21
2023-08-08T10:41:00.071Z,57.41
2023-08-08T10:42:00.331Z,57.51
2023-08-08T10:43:00.205Z,57.91
2023-08-08T10:44:00.407Z,58.29
2023-08-08T10:45:00.432Z,58.29
2023-08-08T10:46:12.969Z,58.09
2023-08-08T10:47:00.658Z,57.78
2023-08-08T10:48:00.697Z,56.77
2023-08-08T10:49:00.756Z,56.17
2023-08-08T10:50:00.845Z,55.46
2023-08-08T10:51:01.136Z,54.66
2023-08-08T10:52:01.334Z,54.56
2023-08-08T10:53:01.097Z,54.66
2023-08-08T10:54:01.124Z,54.76
2023-08-08T10:55:01.182Z,54.96
2023-08-08T10:56:01.314Z,55.16
2023-08-08T10:57:01.369Z,55.64
2023-08-08T10:58:01.787Z,56.04
2023-08-08T10:59:01.514Z,55.54
2023-08-08T11:00:01.636Z,55.34
2023-08-08T11:01:01.726Z,55.44
2023-08-08T11:02:02.138Z,55.34
2023-08-08T11:03:01.848Z,55.14
2023-08-08T11:04:01.910Z,55.44
2023-08-08T11:05:02.982Z,55.54
2023-08-08T11:06:02.098Z,55.54
2023-08-08T11:07:02.156Z,55.74
2023-08-08T11:08:02.232Z,55.84
2023-08-08T11:09:02.323Z,55.84
2023-08-08T11:10:11.217Z,56.04
2023-08-08T11:11:02.561Z,56.12
2023-08-08T11:12:02.937Z,56.22
2023-08-08T11:13:02.657Z,56.42
2023-08-08T11:14:02.756Z,56.62
2023-08-08T11:15:02.864Z,56.82
2023-08-08T11:16:03.068Z,56.95
2023-08-08T11:17:03.020Z,56.45
2023-08-08T11:18:03.178Z,56.45
2023-08-08T11:19:03.135Z,56.42
2023-08-08T11:20:03.218Z,56.32
2023-08-08T11:21:16.466Z,56.32
2023-08-08T11:22:03.613Z,56.02
2023-08-08T11:23:03.464Z,55.51
2023-08-08T11:24:03.657Z,55.41
2023-08-08T11:25:03.644Z,55.21
2023-08-08T11:27:03.811Z,55.62
2023-08-08T11:28:03.869Z,55.91
2023-08-08T11:29:03.931Z,56.02
2023-08-08T11:30:04.107Z,56.12
2023-08-08T11:31:04.256Z,56.22
2023-08-08T11:32:04.717Z,56.42
2023-08-08T11:34:04.462Z,56.82
2023-08-08T11:35:04.695Z,56.82
2023-08-08T11:36:04.706Z,56.42
2023-08-08T11:37:04.738Z,56.52
2023-08-08T11:38:04.939Z,56.62
2023-08-08T11:39:04.779Z,56.62
2023-08-08T11:40:04.838Z,56.82
2023-08-08T11:41:05.561Z,56.72
2023-08-08T11:42:05.172Z,56.60
2023-08-08T11:43:05.771Z,56.70
2023-08-08T11:44:05.241Z,56.70
2023-08-08T11:46:39.373Z,57.30
2023-08-08T11:47:40.384Z,57.53
2023-08-08T11:48:40.494Z,57.83
2023-08-08T11:49:40.482Z,58.34
2023-08-08T11:50:40.528Z,58.64
2023-08-08T11:51:40.829Z,58.31
2023-08-08T11:52:40.719Z,57.90
2023-08-08T11:53:41.096Z,58.01
2023-08-08T11:56:40.557Z,58.41
2023-08-08T12:03:31.944Z,58.74
2023-08-08T12:11:58.667Z,57.86
2023-08-08T12:14:15.208Z,58.06
2023-08-08T12:15:16.897Z,57.96
2023-08-08T12:21:40.996Z,57.73
2023-08-08T12:44:59.574Z,58.01
2023-08-08T12:45:59.508Z,57.70
2023-08-08T12:53:16.130Z,56.64
2023-08-08T13:02:24.248Z,56.64
2023-08-08T13:09:37.234Z,58.05
2023-08-08T13:10:38.156Z,58.35
2023-08-08T13:11:38.334Z,57.24
2023-08-08T13:16:04.512Z,55.41
2023-08-08T13:17:05.361Z,54.80
2023-08-08T13:31:16.592Z,54.98
2023-08-08T13:32:17.501Z,54.68
2023-08-08T13:33:17.629Z,54.58
2023-08-08T13:34:17.687Z,54.65
2023-08-08T13:35:17.764Z,54.65
2023-08-08T13:36:17.852Z,54.55
2023-08-08T13:37:17.937Z,54.45
2023-08-08T13:38:17.956Z,54.45
2023-08-08T13:39:18.055Z,54.43
2023-08-08T13:40:18.150Z,54.72
2023-08-08T13:41:18.299Z,54.22
2023-08-08T13:42:18.302Z,54.02
2023-08-08T13:43:18.388Z,54.50
2023-08-08T13:44:18.492Z,54.40
2023-08-08T13:45:18.578Z,54.10
2023-08-08T13:46:18.714Z,53.59
2023-08-08T13:47:18.764Z,53.17
2023-08-08T13:48:18.811Z,52.97
2023-08-08T13:49:18.984Z,53.07
2023-08-08T13:50:19.017Z,53.27
2023-08-08T13:51:19.127Z,53.47
2023-08-08T13:52:19.192Z,53.57
2023-08-08T13:53:19.262Z,53.27
2023-08-08T13:54:19.366Z,52.75
2023-08-08T13:55:19.423Z,52.84
2023-08-08T13:56:19.556Z,52.84
2023-08-08T13:57:19.578Z,53.14
2023-08-08T13:58:19.691Z,52.04
2023-08-08T13:59:19.744Z,52.34
2023-08-08T14:00:19.846Z,52.55
2023-08-08T14:01:20.008Z,52.64
2023-08-08T14:02:20.031Z,53.05
2023-08-08T14:03:20.192Z,52.84
2023-08-08T14:04:20.218Z,53.05
2023-08-08T14:05:20.318Z,53.25
2023-08-08T14:06:20.412Z,52.94
2023-08-08T14:07:20.423Z,52.64
2023-08-08T14:08:20.521Z,52.64
2023-08-08T14:09:20.596Z,52.55
2023-08-08T14:10:20.657Z,52.04
2023-08-08T14:11:20.732Z,52.04
2023-08-08T14:12:20.778Z,52.14
2023-08-08T14:13:20.921Z,51.74
2023-08-08T14:14:20.991Z,51.74
2023-08-08T14:15:21.097Z,51.64
2023-08-08T14:16:21.180Z,51.84
2023-08-08T14:17:21.254Z,51.37
2023-08-08T14:18:21.335Z,51.56
2023-08-08T14:19:21.374Z,51.97
2023-08-08T14:20:21.476Z,52.26
2023-08-08T14:21:21.593Z,52.37
2023-08-08T14:22:21.639Z,51.97
2023-08-08T14:23:21.700Z,52.26
2023-08-08T14:24:21.770Z,52.57
2023-08-08T14:25:21.854Z,52.67
2023-08-08T14:26:21.977Z,52.67
2023-08-08T14:27:22.086Z,52.84
2023-08-08T14:28:23.593Z,52.84
2023-08-08T14:29:22.204Z,52.75
2023-08-08T14:30:22.346Z,52.34
2023-08-08T14:31:22.462Z,52.44
2023-08-08T14:32:22.523Z,52.64
2023-08-08T14:33:22.626Z,52.84
2023-08-08T14:34:22.666Z,52.55
2023-08-08T14:35:22.735Z,52.44
2023-08-08T14:36:22.855Z,52.44
2023-08-08T14:37:22.869Z,52.34
2023-08-08T14:38:22.958Z,52.14
2023-08-08T14:39:23.021Z,51.84
2023-08-08T14:40:23.131Z,51.84
2023-08-08T14:41:23.188Z,52.04
2023-08-08T14:42:23.229Z,52.04
2023-08-08T14:43:23.328Z,52.12
2023-08-08T14:44:23.427Z,52.22
2023-08-08T14:45:23.503Z,52.32
2023-08-08T14:46:23.624Z,52.55
2023-08-08T14:47:23.690Z,52.12
2023-08-08T14:48:23.709Z,52.32
2023-08-08T14:49:23.806Z,52.32
2023-08-08T14:50:23.905Z,52.32
2023-08-08T14:51:24.006Z,52.42
2023-08-08T14:52:24.933Z,52.52
2023-08-08T14:53:24.132Z,53.12
2023-08-08T14:54:24.231Z,53.22
2023-08-08T14:55:24.354Z,53.32
2023-08-08T14:56:24.445Z,53.02
2023-08-08T14:57:24.497Z,51.82
2023-08-08T14:58:25.489Z,51.92
2023-08-08T14:59:24.672Z,51.82
2023-08-08T15:00:24.759Z,51.44
2023-08-08T15:01:24.908Z,51.74
2023-08-08T15:02:24.970Z,51.94
2023-08-08T15:03:25.185Z,52.04
2023-08-08T15:04:25.123Z,52.14
2023-08-08T15:05:25.177Z,52.24
2023-08-08T15:06:25.345Z,52.04
2023-08-08T15:07:25.381Z,51.74
2023-08-08T15:08:25.481Z,51.84
2023-08-08T15:09:25.520Z,52.14
2023-08-08T15:10:25.672Z,52.34
2023-08-08T15:11:25.739Z,52.44
2023-08-08T15:12:25.767Z,52.64
2023-08-08T15:13:25.858Z,52.55
2023-08-08T15:14:25.937Z,52.34
2023-08-08T15:15:26.016Z,52.24
2023-08-08T15:16:26.104Z,52.24
2023-08-08T15:17:27.980Z,51.24
2023-08-08T15:18:26.239Z,50.94
2023-08-08T15:19:26.321Z,51.24
2023-08-08T15:20:26.383Z,51.54
2023-08-08T15:21:26.474Z,51.44
2023-08-08T15:22:26.551Z,51.54
2023-08-08T15:23:27.934Z,51.84
2023-08-08T15:24:26.704Z,52.24
2023-08-08T15:25:26.802Z,52.24
2023-08-08T15:26:26.907Z,52.34
2023-08-08T15:27:26.975Z,52.04
2023-08-08T15:28:27.071Z,51.74
2023-08-08T15:29:28.033Z,51.24
2023-08-08T15:30:27.253Z,50.54
2023-08-08T15:31:27.387Z,50.63
2023-08-08T15:32:27.460Z,50.84
2023-08-08T15:33:27.438Z,51.04
2023-08-08T15:34:27.533Z,50.74
2023-08-08T15:35:28.686Z,50.94
2023-08-08T15:36:27.762Z,51.04
2023-08-08T15:37:27.794Z,51.34
2023-08-08T15:44:10.133Z,51.89
2023-08-08T15:45:11.235Z,51.99
2023-08-08T15:46:11.248Z,52.09
2023-08-08T15:47:11.406Z,51.92
2023-08-08T16:44:31.764Z,54.17
2023-08-08T16:45:32.841Z,53.67
2023-08-08T16:56:18.595Z,54.25
2023-08-08T16:58:42.110Z,54.65
2023-08-08T16:59:43.137Z,54.75
2023-08-08T17:11:35.346Z,55.08
2023-08-08T17:17:14.473Z,55.58
2023-08-08T17:22:19.385Z,55.18
2023-08-08T17:25:04.697Z,55.38
2023-08-08T17:28:59.821Z,55.79
2023-08-08T17:41:19.235Z,55.91
2023-08-08T17:45:04.781Z,56.11
2023-08-08T18:17:21.825Z,57.88
2023-08-08T18:18:20.283Z,57.98
2023-08-08T18:19:21.025Z,58.18
2023-08-08T18:20:20.963Z,58.18
2023-08-08T18:25:30.254Z,58.48
2023-08-08T18:26:31.195Z,58.58
2023-08-08T18:27:31.295Z,58.58
2023-08-08T18:28:31.368Z,58.58
2023-08-08T18:29:31.416Z,58.58
2023-08-08T18:37:33.718Z,59.08
2023-08-08T18:38:35.783Z,59.28
2023-08-08T18:39:35.869Z,59.28
2023-08-08T18:43:34.615Z,59.48
2023-08-08T18:44:37.520Z,59.48
2023-08-08T18:45:35.143Z,59.59
2023-08-08T18:46:35.113Z,59.59
2023-08-08T18:51:39.337Z,59.59
2023-08-08T18:52:40.061Z,59.59
2023-08-08T19:06:57.616Z,60.75
2023-08-08T19:07:58.487Z,60.75
2023-08-08T19:08:58.461Z,60.85
2023-08-08T19:09:58.526Z,60.96
2023-08-08T19:10:58.592Z,60.96
2023-08-08T19:11:59.090Z,60.85
2023-08-08T19:12:58.755Z,60.83
2023-08-08T19:13:58.847Z,60.83
2023-08-08T19:14:58.928Z,60.72
2023-08-08T19:15:59.020Z,60.72
2023-08-08T19:16:59.106Z,60.72
2023-08-08T19:17:59.183Z,60.72
2023-08-08T19:18:59.202Z,60.83
2023-08-08T19:19:59.299Z,60.83
2023-08-08T19:31:08.783Z,61.46
2023-08-08T19:32:09.815Z,61.46
2023-08-08T19:33:09.992Z,61.56
2023-08-08T19:34:09.978Z,61.56
2023-08-08T19:35:10.061Z,61.56
2023-08-08T19:36:10.121Z,61.56
2023-08-08T19:37:10.217Z,61.66
2023-08-08T19:38:10.303Z,61.56
2023-08-08T19:39:10.405Z,61.56
2023-08-08T19:40:10.478Z,61.56
2023-08-08T19:41:10.518Z,61.56
2023-08-08T19:42:10.590Z,61.56
2023-08-08T19:43:10.711Z,61.56
2023-08-08T19:44:10.760Z,61.56
2023-08-08T19:50:41.539Z,61.99
2023-08-08T19:51:41.038Z,61.99
2023-08-08T19:52:40.852Z,62.09
2023-08-08T19:53:40.924Z,62.19
2023-08-08T19:54:41.052Z,62.19
2023-08-08T19:55:41.161Z,62.19
2023-08-08T19:56:41.225Z,62.19
2023-08-08T19:57:42.063Z,62.19
2023-08-08T20:10:39.578Z,63.06
2023-08-08T20:11:40.626Z,63.16
2023-08-08T20:12:40.718Z,63.16
2023-08-08T20:13:40.859Z,63.16
2023-08-08T20:14:40.875Z,63.13
2023-08-08T20:15:40.989Z,63.03
2023-08-08T20:16:41.040Z,63.03
2023-08-08T20:17:41.156Z,62.93
2023-08-08T20:18:41.165Z,62.93
2023-08-08T20:19:41.311Z,62.93
2023-08-08T20:22:20.596Z,62.83
2023-08-08T20:27:45.250Z,63.13
2023-08-08T20:43:17.879Z,63.73
2023-08-08T20:44:21.689Z,63.73
2023-08-08T20:45:19.021Z,63.73
2023-08-08T20:46:19.133Z,63.73
2023-08-08T20:47:19.147Z,63.70
2023-08-08T20:48:19.228Z,63.59
2023-08-08T20:49:19.330Z,63.59
2023-08-08T20:50:19.416Z,63.49
2023-08-08T20:51:19.469Z,63.49
2023-08-08T20:52:19.643Z,63.29
2023-08-08T20:53:19.674Z,63.29
2023-08-08T20:54:19.755Z,63.29
2023-08-08T20:55:19.843Z,63.39
2023-08-08T21:02:36.785Z,64.03
2023-08-08T21:14:23.718Z,64.67
2023-08-08T21:15:24.555Z,64.67
2023-08-08T21:16:26.627Z,64.76
2023-08-08T21:17:24.670Z,64.76
2023-08-08T21:18:24.702Z,64.76
2023-08-08T21:19:24.807Z,64.67
2023-08-08T21:20:24.938Z,64.53
2023-08-08T21:21:24.937Z,64.53
2023-08-08T21:22:25.099Z,64.53
2023-08-08T21:23:25.159Z,64.43
2023-08-08T21:24:25.193Z,64.43
2023-08-08T21:25:25.457Z,64.43
2023-08-08T21:26:30.118Z,64.43
2023-08-08T21:30:45.103Z,64.33
2023-08-08T21:40:57.070Z,64.46
2023-08-08T21:41:58.129Z,64.56
2023-08-08T21:42:59.102Z,64.67
2023-08-08T21:44:09.444Z,64.64
2023-08-08T21:44:58.419Z,64.64
2023-08-08T21:45:58.508Z,64.64
2023-08-08T21:46:58.557Z,64.53
2023-08-08T21:47:59.881Z,64.53
2023-08-08T21:48:58.719Z,64.43
2023-08-08T21:49:58.807Z,64.43
2023-08-08T21:50:58.877Z,64.43
2023-08-08T21:51:59.004Z,64.43
2023-08-08T21:54:31.491Z,64.33
2023-08-08T22:00:12.347Z,64.23
2023-08-08T22:01:13.464Z,64.23
2023-08-08T22:02:13.490Z,64.43
2023-08-08T22:03:13.602Z,64.53
2023-08-08T22:04:13.593Z,64.53
2023-08-08T22:05:13.731Z,64.43
2023-08-08T22:06:13.840Z,64.33
2023-08-08T22:07:13.881Z,64.23
2023-08-08T22:08:13.902Z,64.23
2023-08-08T22:09:13.998Z,64.23
2023-08-08T22:10:14.054Z,64.20
2023-08-08T22:11:14.114Z,64.20
2023-08-08T22:12:14.188Z,64.10
2023-08-08T22:13:14.314Z,64.10
2023-08-08T22:14:14.350Z,64.10
2023-08-08T22:15:14.422Z,64.10
2023-08-08T22:16:14.514Z,64.00
2023-08-08T22:17:14.591Z,63.90
2023-08-08T22:18:15.599Z,63.90
2023-08-08T22:19:14.710Z,63.90
2023-08-08T22:20:14.770Z,63.90
2023-08-08T22:21:14.881Z,63.90
2023-08-08T22:22:14.948Z,63.79
2023-08-08T22:23:20.141Z,63.79
2023-08-08T22:24:15.114Z,63.79
2023-08-08T22:25:15.197Z,63.79
2023-08-08T22:26:15.265Z,63.79
2023-08-08T22:27:15.341Z,63.79
2023-08-08T22:28:15.458Z,63.79
2023-08-08T22:29:15.488Z,63.79
2023-08-08T22:30:15.547Z,63.79
2023-08-08T22:31:15.718Z,63.79
2023-08-08T22:32:15.667Z,63.79
2023-08-08T22:33:15.816Z,63.79
2023-08-08T22:34:15.867Z,63.79
2023-08-08T22:35:15.975Z,63.70
2023-08-08T22:36:16.051Z,63.70
2023-08-08T22:37:16.104Z,63.70
2023-08-08T22:38:16.219Z,63.70
2023-08-08T22:39:16.321Z,63.70